Terminal Aerodrome Forecast
Issued by NWS

Home | Current Version | Previous Version | Text Only | Print | Product List | Glossary On
Versions: 1 2 3 4 5 6 7 8 9 10 11 12 13 14 15 16 17
405
FTUS41 KBGM 210520
TAFRME
TAF
KRME 210520Z 2106/2206 VRB03KT P6SM SCT250
     FM211500 20005KT P6SM SCT045
     FM220000 12003KT P6SM SCT250=

USA.gov is the U.S. government's official web portal to all federal, state and local government web resources and services.